sensor_id;sensor_type;location;lat;lon;timestamp;pressure;altitude;pressure_sealevel;temperature;humidity
19114;BME280;9689;51.052;13.772;2023-05-09T00:02:37;101135.75;;;9.18;56.50
19114;BME280;9689;51.052;13.772;2023-05-09T00:07:38;101128.84;;;9.14;56.82
19114;BME280;9689;51.052;13.772;2023-05-09T00:12:39;101129.69;;;9.14;56.41
19114;BME280;9689;51.052;13.772;2023-05-09T00:17:43;101121.88;;;9.08;55.86
19114;BME280;9689;51.052;13.772;2023-05-09T00:22:45;101123.63;;;9.09;56.02
19114;BME280;9689;51.052;13.772;2023-05-09T00:27:45;101117.56;;;9.05;55.99
19114;BME280;9689;51.052;13.772;2023-05-09T00:32:47;101120.16;;;8.93;56.06
19114;BME280;9689;51.052;13.772;2023-05-09T00:37:48;101112.38;;;8.92;56.26
19114;BME280;9689;51.052;13.772;2023-05-09T00:42:49;101109.78;;;8.95;55.92
19114;BME280;9689;51.052;13.772;2023-05-09T00:47:51;101101.97;;;8.92;55.32
19114;BME280;9689;51.052;13.772;2023-05-09T00:52:52;101099.38;;;8.92;55.74
19114;BME280;9689;51.052;13.772;2023-05-09T00:57:53;101108.03;;;8.85;55.70
19114;BME280;9689;51.052;13.772;2023-05-09T01:02:55;101092.44;;;8.82;56.64
19114;BME280;9689;51.052;13.772;2023-05-09T01:08:02;101095.03;;;8.75;55.75
19114;BME280;9689;51.052;13.772;2023-05-09T01:13:14;101090.72;;;8.73;56.27
19114;BME280;9689;51.052;13.772;2023-05-09T01:18:21;101087.25;;;8.69;56.08
19114;BME280;9689;51.052;13.772;2023-05-09T01:23:43;101082.91;;;8.67;55.93
19114;BME280;9689;51.052;13.772;2023-05-09T01:29:07;101072.53;;;8.61;55.88
19114;BME280;9689;51.052;13.772;2023-05-09T01:34:09;101069.03;;;8.49;56.74
19114;BME280;9689;51.052;13.772;2023-05-09T01:39:12;101069.06;;;8.53;56.69
19114;BME280;9689;51.052;13.772;2023-05-09T01:44:14;101069.91;;;8.45;56.54
19114;BME280;9689;51.052;13.772;2023-05-09T01:49:17;101070.75;;;8.40;57.31
19114;BME280;9689;51.052;13.772;2023-05-09T01:54:21;101070.75;;;8.41;57.51
19114;BME280;9689;51.052;13.772;2023-05-09T01:59:26;101063.81;;;8.30;57.31
19114;BME280;9689;51.052;13.772;2023-05-09T02:04:29;101063.81;;;8.30;57.59
19114;BME280;9689;51.052;13.772;2023-05-09T02:09:30;101049.97;;;8.28;57.71
19114;BME280;9689;51.052;13.772;2023-05-09T02:14:32;101053.41;;;8.27;57.65
19114;BME280;9689;51.052;13.772;2023-05-09T02:19:33;101055.97;;;8.16;57.32
19114;BME280;9689;51.052;13.772;2023-05-09T02:24:34;101052.50;;;8.12;57.81
19114;BME280;9689;51.052;13.772;2023-05-09T02:29:40;101055.13;;;8.17;57.91
19114;BME280;9689;51.052;13.772;2023-05-09T02:34:43;101050.75;;;8.05;58.42
19114;BME280;9689;51.052;13.772;2023-05-09T02:39:45;101052.47;;;7.97;58.65
19114;BME280;9689;51.052;13.772;2023-05-09T02:44:47;101050.75;;;7.98;58.49
19114;BME280;9689;51.052;13.772;2023-05-09T02:49:47;101045.56;;;7.91;58.65
19114;BME280;9689;51.052;13.772;2023-05-09T02:54:48;101047.28;;;7.92;58.76
19114;BME280;9689;51.052;13.772;2023-05-09T02:59:50;101053.31;;;7.84;58.79
19114;BME280;9689;51.052;13.772;2023-05-09T03:04:51;101045.50;;;7.81;58.75
19114;BME280;9689;51.052;13.772;2023-05-09T03:09:52;101051.56;;;7.80;59.33
19114;BME280;9689;51.052;13.772;2023-05-09T03:14:55;101039.44;;;7.80;58.60
19114;BME280;9689;51.052;13.772;2023-05-09T03:19:56;101043.75;;;7.72;59.51
19114;BME280;9689;51.052;13.772;2023-05-09T03:24:59;101039.38;;;7.60;59.57
19114;BME280;9689;51.052;13.772;2023-05-09T03:30:01;101046.34;;;7.64;58.90
19114;BME280;9689;51.052;13.772;2023-05-09T03:35:02;101035.97;;;7.64;58.85
19114;BME280;9689;51.052;13.772;2023-05-09T03:40:05;101030.75;;;7.60;59.60
19114;BME280;9689;51.052;13.772;2023-05-09T03:45:14;101031.59;;;7.57;59.24
19114;BME280;9689;51.052;13.772;2023-05-09T03:50:17;101021.22;;;7.56;59.38
19114;BME280;9689;51.052;13.772;2023-05-09T03:55:18;101022.97;;;7.58;58.69
19114;BME280;9689;51.052;13.772;2023-05-09T04:00:20;101014.34;;;7.69;58.77
19114;BME280;9689;51.052;13.772;2023-05-09T04:05:32;101021.28;;;7.76;58.59
19114;BME280;9689;51.052;13.772;2023-05-09T04:10:35;101018.69;;;7.77;57.72
19114;BME280;9689;51.052;13.772;2023-05-09T04:15:37;101018.69;;;7.79;57.95
19114;BME280;9689;51.052;13.772;2023-05-09T04:20:38;101020.44;;;7.83;57.93
19114;BME280;9689;51.052;13.772;2023-05-09T04:25:40;101016.13;;;7.85;57.74
19114;BME280;9689;51.052;13.772;2023-05-09T04:30:42;101011.81;;;7.99;56.89
19114;BME280;9689;51.052;13.772;2023-05-09T04:35:43;101017.03;;;8.05;56.48
19114;BME280;9689;51.052;13.772;2023-05-09T04:40:44;101012.69;;;8.04;56.32
19114;BME280;9689;51.052;13.772;2023-05-09T04:45:47;101002.34;;;8.22;55.98
19114;BME280;9689;51.052;13.772;2023-05-09T04:50:48;101004.06;;;8.30;55.33
19114;BME280;9689;51.052;13.772;2023-05-09T04:55:49;100999.78;;;8.45;55.03
19114;BME280;9689;51.052;13.772;2023-05-09T05:00:52;100992.84;;;8.55;55.11
19114;BME280;9689;51.052;13.772;2023-05-09T05:05:53;100977.28;;;8.61;55.20
19114;BME280;9689;51.052;13.772;2023-05-09T05:10:54;100995.44;;;8.69;54.77
19114;BME280;9689;51.052;13.772;2023-05-09T05:15:57;100993.69;;;8.75;54.26
19114;BME280;9689;51.052;13.772;2023-05-09T05:20:58;100991.94;;;8.90;54.96
19114;BME280;9689;51.052;13.772;2023-05-09T05:25:59;100980.66;;;8.98;54.48
19114;BME280;9689;51.052;13.772;2023-05-09T05:31:02;100982.38;;;9.05;53.54
19114;BME280;9689;51.052;13.772;2023-05-09T05:36:04;100989.28;;;9.13;53.85
19114;BME280;9689;51.052;13.772;2023-05-09T05:41:05;100984.03;;;9.25;53.76
19114;BME280;9689;51.052;13.772;2023-05-09T05:46:12;100976.19;;;9.39;53.67
19114;BME280;9689;51.052;13.772;2023-05-09T05:51:13;100984.75;;;9.54;52.86
19114;BME280;9689;51.052;13.772;2023-05-09T05:56:15;100981.25;;;9.63;52.38
19114;BME280;9689;51.052;13.772;2023-05-09T06:01:18;100980.34;;;9.75;52.63
19114;BME280;9689;51.052;13.772;2023-05-09T06:06:19;100972.50;;;9.82;52.76
19114;BME280;9689;51.052;13.772;2023-05-09T06:11:20;100952.41;;;10.00;52.13
19114;BME280;9689;51.052;13.772;2023-05-09T06:16:22;100955.69;;;10.22;50.89
19114;BME280;9689;51.052;13.772;2023-05-09T06:21:23;100945.22;;;10.35;49.93
19114;BME280;9689;51.052;13.772;2023-05-09T06:26:24;100946.81;;;10.48;49.62
19114;BME280;9689;51.052;13.772;2023-05-09T06:31:27;100933.66;;;10.59;49.13
19114;BME280;9689;51.052;13.772;2023-05-09T06:36:28;100933.53;;;10.74;49.81
19114;BME280;9689;51.052;13.772;2023-05-09T06:41:28;100928.16;;;10.90;48.45
19114;BME280;9689;51.052;13.772;2023-05-09T06:46:31;100924.50;;;11.03;48.41
19114;BME280;9689;51.052;13.772;2023-05-09T06:51:31;100920.06;;;11.11;47.51
19114;BME280;9689;51.052;13.772;2023-05-09T06:56:32;100908.53;;;11.29;47.86
19114;BME280;9689;51.052;13.772;2023-05-09T07:01:34;100911.03;;;11.38;47.08
19114;BME280;9689;51.052;13.772;2023-05-09T07:06:35;100899.56;;;11.50;46.04
19114;BME280;9689;51.052;13.772;2023-05-09T07:11:36;100886.06;;;11.79;46.27
19114;BME280;9689;51.052;13.772;2023-05-09T07:16:38;100874.63;;;11.87;46.51
19114;BME280;9689;51.052;13.772;2023-05-09T07:21:39;100878.81;;;11.99;44.15
19114;BME280;9689;51.052;13.772;2023-05-09T07:26:39;100870.97;;;11.99;44.31
19114;BME280;9689;51.052;13.772;2023-05-09T07:31:41;100870.91;;;12.02;44.03
19114;BME280;9689;51.052;13.772;2023-05-09T07:36:42;100857.75;;;12.08;43.86
19114;BME280;9689;51.052;13.772;2023-05-09T07:41:43;100858.38;;;12.23;44.01
19114;BME280;9689;51.052;13.772;2023-05-09T07:46:47;100839.50;;;12.53;43.44
19114;BME280;9689;51.052;13.772;2023-05-09T07:51:48;100841.66;;;12.76;43.16
19114;BME280;9689;51.052;13.772;2023-05-09T07:56:48;100838.06;;;12.82;43.09
19114;BME280;9689;51.052;13.772;2023-05-09T08:01:51;100827.16;;;13.01;43.38
19114;BME280;9689;51.052;13.772;2023-05-09T08:06:51;100814.81;;;13.08;42.09
19114;BME280;9689;51.052;13.772;2023-05-09T08:11:52;100818.09;;;13.18;41.09
19114;BME280;9689;51.052;13.772;2023-05-09T08:16:54;100828.31;;;13.30;40.51
19114;BME280;9689;51.052;13.772;2023-05-09T08:21:55;100819.41;;;13.39;41.27
19114;BME280;9689;51.052;13.772;2023-05-09T08:26:55;100806.94;;;13.48;40.33
19114;BME280;9689;51.052;13.772;2023-05-09T08:31:57;100795.31;;;13.60;39.49
19114;BME280;9689;51.052;13.772;2023-05-09T08:36:58;100792.59;;;13.63;39.26
19114;BME280;9689;51.052;13.772;2023-05-09T08:42:00;100790.94;;;13.95;39.28
19114;BME280;9689;51.052;13.772;2023-05-09T08:47:03;100786.25;;;14.07;41.07
19114;BME280;9689;51.052;13.772;2023-05-09T08:52:04;100784.09;;;14.22;38.29
19114;BME280;9689;51.052;13.772;2023-05-09T08:57:05;100772.44;;;14.33;38.65
19114;BME280;9689;51.052;13.772;2023-05-09T09:02:08;100760.72;;;14.47;37.05
19114;BME280;9689;51.052;13.772;2023-05-09T09:07:12;100761.63;;;14.44;36.85
19114;BME280;9689;51.052;13.772;2023-05-09T09:12:15;100760.31;;;14.60;37.34
19114;BME280;9689;51.052;13.772;2023-05-09T09:17:19;100750.91;;;14.83;38.76
19114;BME280;9689;51.052;13.772;2023-05-09T09:22:21;100749.06;;;14.85;37.21
19114;BME280;9689;51.052;13.772;2023-05-09T09:27:22;100738.03;;;15.03;38.27
19114;BME280;9689;51.052;13.772;2023-05-09T09:32:31;100740.38;;;15.39;37.71
19114;BME280;9689;51.052;13.772;2023-05-09T09:37:33;100741.75;;;15.50;37.45
19114;BME280;9689;51.052;13.772;2023-05-09T09:42:41;100742.91;;;15.42;36.58
19114;BME280;9689;51.052;13.772;2023-05-09T09:47:44;100737.59;;;15.43;37.56
19114;BME280;9689;51.052;13.772;2023-05-09T09:52:49;100717.44;;;15.70;36.48
19114;BME280;9689;51.052;13.772;2023-05-09T09:57:50;100719.88;;;16.01;36.16
19114;BME280;9689;51.052;13.772;2023-05-09T10:02:54;100713.09;;;16.19;35.09
19114;BME280;9689;51.052;13.772;2023-05-09T10:07:55;100713.03;;;16.44;35.37
19114;BME280;9689;51.052;13.772;2023-05-09T10:12:58;100712.56;;;16.56;33.94
19114;BME280;9689;51.052;13.772;2023-05-09T10:18:01;100701.56;;;16.70;33.60
19114;BME280;9689;51.052;13.772;2023-05-09T10:23:03;100680.00;;;16.82;34.10
19114;BME280;9689;51.052;13.772;2023-05-09T10:28:11;100676.94;;;16.93;34.71
19114;BME280;9689;51.052;13.772;2023-05-09T10:33:14;100673.06;;;17.02;33.58
19114;BME280;9689;51.052;13.772;2023-05-09T10:38:16;100668.97;;;17.16;33.95
19114;BME280;9689;51.052;13.772;2023-05-09T10:43:19;100648.88;;;17.14;33.15
19114;BME280;9689;51.052;13.772;2023-05-09T10:48:24;100653.31;;;17.34;33.25
19114;BME280;9689;51.052;13.772;2023-05-09T10:53:39;100638.19;;;17.39;31.93
19114;BME280;9689;51.052;13.772;2023-05-09T10:58:40;100624.78;;;17.43;31.53
19114;BME280;9689;51.052;13.772;2023-05-09T11:04:08;100620.97;;;17.50;32.47
19114;BME280;9689;51.052;13.772;2023-05-09T11:09:30;100608.97;;;17.64;31.51
19114;BME280;9689;51.052;13.772;2023-05-09T11:14:41;100601.19;;;17.61;31.06
19114;BME280;9689;51.052;13.772;2023-05-09T11:20:03;100592.09;;;17.68;30.15
19114;BME280;9689;51.052;13.772;2023-05-09T11:25:07;100592.72;;;17.93;31.00
19114;BME280;9689;51.052;13.772;2023-05-09T11:30:10;100576.91;;;17.93;30.53
19114;BME280;9689;51.052;13.772;2023-05-09T11:35:15;100557.44;;;17.96;29.93
19114;BME280;9689;51.052;13.772;2023-05-09T11:40:17;100551.91;;;18.02;30.03
19114;BME280;9689;51.052;13.772;2023-05-09T11:45:19;100543.59;;;18.28;28.71
19114;BME280;9689;51.052;13.772;2023-05-09T11:50:21;100540.81;;;18.31;29.87
19114;BME280;9689;51.052;13.772;2023-05-09T11:55:22;100539.22;;;18.46;30.00
19114;BME280;9689;51.052;13.772;2023-05-09T12:00:24;100524.50;;;18.59;29.06
19114;BME280;9689;51.052;13.772;2023-05-09T12:05:27;100501.72;;;18.57;28.34
19114;BME280;9689;51.052;13.772;2023-05-09T12:10:27;100496.88;;;18.67;27.70
19114;BME280;9689;51.052;13.772;2023-05-09T12:15:28;100496.09;;;18.99;28.33
19114;BME280;9689;51.052;13.772;2023-05-09T12:20:40;100498.50;;;19.04;28.07
19114;BME280;9689;51.052;13.772;2023-05-09T12:25:47;100482.38;;;19.26;28.49
19114;BME280;9689;51.052;13.772;2023-05-09T12:30:48;100475.38;;;19.25;26.58
19114;BME280;9689;51.052;13.772;2023-05-09T12:36:02;100471.91;;;19.57;27.42
19114;BME280;9689;51.052;13.772;2023-05-09T12:41:05;100473.19;;;19.33;26.62
19114;BME280;9689;51.052;13.772;2023-05-09T12:46:26;100456.97;;;19.56;26.95
19114;BME280;9689;51.052;13.772;2023-05-09T12:51:28;100451.50;;;19.59;25.46
19114;BME280;9689;51.052;13.772;2023-05-09T12:56:32;100441.97;;;19.57;26.26
19114;BME280;9689;51.052;13.772;2023-05-09T13:01:34;100434.97;;;19.71;26.60
19114;BME280;9689;51.052;13.772;2023-05-09T13:06:46;100431.97;;;19.62;26.93
19114;BME280;9689;51.052;13.772;2023-05-09T13:11:48;100415.88;;;19.82;26.67
19114;BME280;9689;51.052;13.772;2023-05-09T13:16:49;100411.75;;;19.92;26.55
19114;BME280;9689;51.052;13.772;2023-05-09T13:21:51;100400.13;;;20.11;26.11
19114;BME280;9689;51.052;13.772;2023-05-09T13:26:54;100383.72;;;20.20;25.54
19114;BME280;9689;51.052;13.772;2023-05-09T13:31:54;100388.16;;;20.19;25.36
19114;BME280;9689;51.052;13.772;2023-05-09T13:36:56;100367.88;;;20.34;26.13
19114;BME280;9689;51.052;13.772;2023-05-09T13:41:57;100354.25;;;20.26;25.89
19114;BME280;9689;51.052;13.772;2023-05-09T13:46:58;100340.03;;;20.57;25.61
19114;BME280;9689;51.052;13.772;2023-05-09T13:52:00;100335.31;;;20.48;25.88
19114;BME280;9689;51.052;13.772;2023-05-09T13:57:01;100333.25;;;20.53;26.06
19114;BME280;9689;51.052;13.772;2023-05-09T14:02:02;100327.88;;;20.69;25.40
19114;BME280;9689;51.052;13.772;2023-05-09T14:07:04;100312.94;;;20.68;26.72
19114;BME280;9689;51.052;13.772;2023-05-09T14:12:05;100306.28;;;20.60;27.21
19114;BME280;9689;51.052;13.772;2023-05-09T14:17:06;100290.38;;;20.75;27.09
19114;BME280;9689;51.052;13.772;2023-05-09T14:22:08;100292.94;;;20.48;27.64
19114;BME280;9689;51.052;13.772;2023-05-09T14:27:09;100289.00;;;20.69;26.82
19114;BME280;9689;51.052;13.772;2023-05-09T14:32:09;100278.66;;;20.79;26.72
19114;BME280;9689;51.052;13.772;2023-05-09T14:37:12;100276.28;;;20.88;26.83
19114;BME280;9689;51.052;13.772;2023-05-09T14:42:13;100275.97;;;21.07;27.05
19114;BME280;9689;51.052;13.772;2023-05-09T14:47:15;100258.25;;;21.08;26.89
19114;BME280;9689;51.052;13.772;2023-05-09T14:52:17;100254.75;;;21.07;26.06
19114;BME280;9689;51.052;13.772;2023-05-09T14:57:18;100248.91;;;21.02;26.69
19114;BME280;9689;51.052;13.772;2023-05-09T15:02:19;100243.44;;;20.91;26.79
19114;BME280;9689;51.052;13.772;2023-05-09T15:07:21;100232.59;;;20.81;26.92
19114;BME280;9689;51.052;13.772;2023-05-09T15:12:22;100226.06;;;20.87;26.21
19114;BME280;9689;51.052;13.772;2023-05-09T15:17:23;100227.41;;;21.07;25.62
19114;BME280;9689;51.052;13.772;2023-05-09T15:22:25;100224.09;;;20.76;26.38
19114;BME280;9689;51.052;13.772;2023-05-09T15:27:25;100217.91;;;20.90;25.69
19114;BME280;9689;51.052;13.772;2023-05-09T15:32:26;100213.06;;;20.97;26.43
19114;BME280;9689;51.052;13.772;2023-05-09T15:37:29;100199.81;;;21.38;26.75
19114;BME280;9689;51.052;13.772;2023-05-09T15:42:31;100208.50;;;21.26;26.50
19114;BME280;9689;51.052;13.772;2023-05-09T15:47:32;100206.03;;;21.37;26.82
19114;BME280;9689;51.052;13.772;2023-05-09T15:52:34;100196.31;;;21.63;25.88
19114;BME280;9689;51.052;13.772;2023-05-09T15:57:35;100191.47;;;21.69;25.73
19114;BME280;9689;51.052;13.772;2023-05-09T16:02:36;100190.19;;;21.62;25.99
19114;BME280;9689;51.052;13.772;2023-05-09T16:07:39;100184.13;;;21.60;25.76
19114;BME280;9689;51.052;13.772;2023-05-09T16:12:42;100174.84;;;22.18;25.66
19114;BME280;9689;51.052;13.772;2023-05-09T16:17:43;100161.44;;;22.33;25.65
19114;BME280;9689;51.052;13.772;2023-05-09T16:22:45;100155.19;;;21.95;26.82
19114;BME280;9689;51.052;13.772;2023-05-09T16:27:46;100173.50;;;22.62;25.42
19114;BME280;9689;51.052;13.772;2023-05-09T16:32:46;100152.78;;;24.30;23.45
19114;BME280;9689;51.052;13.772;2023-05-09T16:37:49;100147.06;;;25.44;21.38
19114;BME280;9689;51.052;13.772;2023-05-09T16:42:49;100141.78;;;25.53;21.40
19114;BME280;9689;51.052;13.772;2023-05-09T16:47:52;100134.91;;;26.73;20.26
19114;BME280;9689;51.052;13.772;2023-05-09T16:52:55;100135.22;;;26.99;19.88
19114;BME280;9689;51.052;13.772;2023-05-09T16:57:56;100125.34;;;26.90;19.79
19114;BME280;9689;51.052;13.772;2023-05-09T17:02:58;100113.81;;;27.47;19.29
19114;BME280;9689;51.052;13.772;2023-05-09T17:08:01;100110.09;;;26.11;20.65
19114;BME280;9689;51.052;13.772;2023-05-09T17:13:04;100117.06;;;25.30;22.13
19114;BME280;9689;51.052;13.772;2023-05-09T17:18:07;100106.78;;;25.26;21.62
19114;BME280;9689;51.052;13.772;2023-05-09T17:23:09;100102.34;;;25.36;21.73
19114;BME280;9689;51.052;13.772;2023-05-09T17:28:10;100094.47;;;24.81;22.06
19114;BME280;9689;51.052;13.772;2023-05-09T17:33:10;100095.31;;;23.94;21.90
19114;BME280;9689;51.052;13.772;2023-05-09T17:38:13;100094.22;;;23.96;21.76
19114;BME280;9689;51.052;13.772;2023-05-09T17:43:13;100094.63;;;23.10;22.59
19114;BME280;9689;51.052;13.772;2023-05-09T17:48:14;100093.53;;;21.41;24.93
19114;BME280;9689;51.052;13.772;2023-05-09T17:53:16;100090.41;;;19.99;27.54
19114;BME280;9689;51.052;13.772;2023-05-09T17:58:17;100090.06;;;19.03;28.57
19114;BME280;9689;51.052;13.772;2023-05-09T18:03:19;100097.84;;;18.43;29.71
19114;BME280;9689;51.052;13.772;2023-05-09T18:08:21;100092.53;;;17.95;31.43
19114;BME280;9689;51.052;13.772;2023-05-09T18:13:22;100089.50;;;17.52;31.62
19114;BME280;9689;51.052;13.772;2023-05-09T18:18:23;100094.19;;;17.30;32.44
19114;BME280;9689;51.052;13.772;2023-05-09T18:23:26;100094.25;;;16.94;33.77
19114;BME280;9689;51.052;13.772;2023-05-09T18:28:27;100090.78;;;16.75;33.99
19114;BME280;9689;51.052;13.772;2023-05-09T18:33:27;100096.44;;;16.48;35.15
19114;BME280;9689;51.052;13.772;2023-05-09T18:38:29;100091.84;;;16.34;35.43
19114;BME280;9689;51.052;13.772;2023-05-09T18:43:33;100088.22;;;16.18;36.27
19114;BME280;9689;51.052;13.772;2023-05-09T18:48:33;100098.44;;;16.05;36.71
19114;BME280;9689;51.052;13.772;2023-05-09T18:53:36;100093.91;;;16.09;37.72
19114;BME280;9689;51.052;13.772;2023-05-09T18:58:37;100100.44;;;16.00;39.14
19114;BME280;9689;51.052;13.772;2023-05-09T19:03:38;100098.72;;;15.99;39.13
19114;BME280;9689;51.052;13.772;2023-05-09T19:08:45;100088.56;;;15.92;39.97
19114;BME280;9689;51.052;13.772;2023-05-09T19:13:46;100087.31;;;15.80;40.20
19114;BME280;9689;51.052;13.772;2023-05-09T19:18:48;100083.06;;;15.77;40.75
19114;BME280;9689;51.052;13.772;2023-05-09T19:23:50;100073.91;;;15.67;40.42
19114;BME280;9689;51.052;13.772;2023-05-09T19:28:51;100070.59;;;15.62;41.52
19114;BME280;9689;51.052;13.772;2023-05-09T19:33:52;100067.25;;;15.59;41.29
19114;BME280;9689;51.052;13.772;2023-05-09T19:38:54;100074.16;;;15.41;42.19
19114;BME280;9689;51.052;13.772;2023-05-09T19:43:55;100065.38;;;15.21;41.14
19114;BME280;9689;51.052;13.772;2023-05-09T19:48:55;100065.56;;;14.96;41.71
19114;BME280;9689;51.052;13.772;2023-05-09T19:53:57;100066.66;;;14.91;41.86
19114;BME280;9689;51.052;13.772;2023-05-09T19:58:59;100069.91;;;14.76;42.33
19114;BME280;9689;51.052;13.772;2023-05-09T20:03:59;100060.47;;;14.72;42.50
19114;BME280;9689;51.052;13.772;2023-05-09T20:09:02;100066.75;;;14.46;42.96
19114;BME280;9689;51.052;13.772;2023-05-09T20:14:03;100064.63;;;14.55;42.98
19114;BME280;9689;51.052;13.772;2023-05-09T20:19:04;100063.56;;;14.37;43.57
19114;BME280;9689;51.052;13.772;2023-05-09T20:24:08;100053.19;;;14.34;43.85
19114;BME280;9689;51.052;13.772;2023-05-09T20:29:10;100053.19;;;14.34;43.30
19114;BME280;9689;51.052;13.772;2023-05-09T20:34:11;100052.38;;;14.32;43.63
19114;BME280;9689;51.052;13.772;2023-05-09T20:39:16;100043.13;;;14.24;43.62
19114;BME280;9689;51.052;13.772;2023-05-09T20:44:17;100038.13;;;14.18;44.07
19114;BME280;9689;51.052;13.772;2023-05-09T20:49:18;100027.09;;;14.09;44.41
19114;BME280;9689;51.052;13.772;2023-05-09T20:54:20;100025.06;;;13.94;44.93
19114;BME280;9689;51.052;13.772;2023-05-09T20:59:22;100029.03;;;14.04;44.94
19114;BME280;9689;51.052;13.772;2023-05-09T21:04:23;100025.41;;;14.07;44.49
19114;BME280;9689;51.052;13.772;2023-05-09T21:09:25;100019.03;;;13.92;45.49
19114;BME280;9689;51.052;13.772;2023-05-09T21:14:26;100015.16;;;13.79;45.85
19114;BME280;9689;51.052;13.772;2023-05-09T21:19:26;100002.31;;;13.73;46.07
19114;BME280;9689;51.052;13.772;2023-05-09T21:24:29;99994.63;;;13.68;46.51
19114;BME280;9689;51.052;13.772;2023-05-09T21:29:29;99990.78;;;13.77;46.56
19114;BME280;9689;51.052;13.772;2023-05-09T21:34:32;99992.69;;;13.73;45.65
19114;BME280;9689;51.052;13.772;2023-05-09T21:39:34;99992.91;;;13.67;45.86
19114;BME280;9689;51.052;13.772;2023-05-09T21:44:34;99984.94;;;13.70;45.83
19114;BME280;9689;51.052;13.772;2023-05-09T21:49:35;99989.53;;;13.64;45.56
19114;BME280;9689;51.052;13.772;2023-05-09T21:54:37;99977.81;;;13.50;46.38
19114;BME280;9689;51.052;13.772;2023-05-09T21:59:38;99978.41;;;13.58;45.93
19114;BME280;9689;51.052;13.772;2023-05-09T22:04:38;99971.97;;;13.44;46.89
19114;BME280;9689;51.052;13.772;2023-05-09T22:09:41;99969.56;;;13.38;46.73
19114;BME280;9689;51.052;13.772;2023-05-09T22:14:41;99973.00;;;13.40;46.45
19114;BME280;9689;51.052;13.772;2023-05-09T22:19:54;99962.81;;;13.32;47.03
19114;BME280;9689;51.052;13.772;2023-05-09T22:24:56;99959.28;;;13.33;47.53
19114;BME280;9689;51.052;13.772;2023-05-09T22:29:57;99952.75;;;13.21;47.72
19114;BME280;9689;51.052;13.772;2023-05-09T22:34:59;99948.47;;;13.17;47.26
19114;BME280;9689;51.052;13.772;2023-05-09T22:40:02;99949.28;;;13.21;47.45
19114;BME280;9689;51.052;13.772;2023-05-09T22:45:04;99942.56;;;13.12;47.32
19114;BME280;9689;51.052;13.772;2023-05-09T22:50:06;99943.63;;;13.07;47.62
19114;BME280;9689;51.052;13.772;2023-05-09T22:55:09;99931.69;;;12.99;48.39
19114;BME280;9689;51.052;13.772;2023-05-09T23:00:11;99932.25;;;13.08;47.59
19114;BME280;9689;51.052;13.772;2023-05-09T23:05:12;99921.28;;;12.98;48.14
19114;BME280;9689;51.052;13.772;2023-05-09T23:10:14;99915.34;;;12.93;48.50
19114;BME280;9689;51.052;13.772;2023-05-09T23:15:15;99909.53;;;12.85;48.74
19114;BME280;9689;51.052;13.772;2023-05-09T23:20:16;99906.06;;;12.84;48.73
19114;BME280;9689;51.052;13.772;2023-05-09T23:25:18;99898.41;;;12.80;48.62
19114;BME280;9689;51.052;13.772;2023-05-09T23:30:19;99898.50;;;12.77;48.19
19114;BME280;9689;51.052;13.772;2023-05-09T23:35:20;99898.09;;;12.64;48.55
19114;BME280;9689;51.052;13.772;2023-05-09T23:40:22;99888.41;;;12.66;48.80
19114;BME280;9689;51.052;13.772;2023-05-09T23:45:23;99892.00;;;12.63;48.53
19114;BME280;9689;51.052;13.772;2023-05-09T23:50:24;99885.34;;;12.55;49.46
19114;BME280;9689;51.052;13.772;2023-05-09T23:55:26;99872.00;;;12.62;49.01
